createdAt,value
2022-10-04T00:00:41.300Z,101827.63
2022-10-04T00:03:19.246Z,101815.31
2022-10-04T00:05:55.328Z,101823.19
2022-10-04T00:08:46.573Z,101830.22
2022-10-04T00:11:31.484Z,101829.31
2022-10-04T00:14:02.153Z,101824.09
2022-10-04T00:16:34.000Z,101826.72
2022-10-04T00:19:40.756Z,101826.69
2022-10-04T00:22:10.266Z,101835.47
2022-10-04T00:24:38.067Z,101824.97
2022-10-04T00:27:24.692Z,101825.81
2022-10-04T00:30:03.728Z,101823.19
2022-10-04T00:32:39.508Z,101823.19
2022-10-04T00:35:24.802Z,101827.56
2022-10-04T00:38:09.115Z,101819.66
2022-10-04T00:40:48.474Z,101824.91
2022-10-04T00:43:26.368Z,101827.53
2022-10-04T00:45:59.823Z,101823.16
2022-10-04T00:48:46.262Z,101824.03
2022-10-04T00:51:33.512Z,101822.28
2022-10-04T00:54:15.055Z,101826.66
2022-10-04T00:56:52.377Z,101829.25
2022-10-04T00:59:46.677Z,101826.63
2022-10-04T01:02:46.651Z,101822.25
2022-10-04T01:05:27.262Z,101821.38
2022-10-04T01:08:16.865Z,101815.22
2022-10-04T01:11:02.551Z,101817.00
2022-10-04T01:13:38.796Z,101821.38
2022-10-04T01:16:20.159Z,101817.03
2022-10-04T01:18:47.674Z,101820.53
2022-10-04T01:21:20.199Z,101817.91
2022-10-04T01:23:49.634Z,101810.91
2022-10-04T01:26:32.175Z,101807.41
2022-10-04T01:29:10.814Z,101807.41
2022-10-04T01:31:42.411Z,101809.13
2022-10-04T01:34:13.371Z,101815.28
2022-10-04T01:36:40.449Z,101810.91
2022-10-04T01:39:07.617Z,101810.03
2022-10-04T01:42:03.138Z,101813.50
2022-10-04T01:44:52.495Z,101813.50
2022-10-04T01:47:25.812Z,101809.13
2022-10-04T01:49:55.484Z,101807.38
2022-10-04T01:52:48.510Z,101817.00
2022-10-04T01:55:24.553Z,101809.97
2022-10-04T01:58:00.764Z,101815.22
2022-10-04T02:00:40.359Z,101812.59
2022-10-04T02:03:30.047Z,101803.84
2022-10-04T02:06:05.069Z,101816.06
2022-10-04T02:08:37.906Z,101816.94
2022-10-04T02:11:06.332Z,101811.72
2022-10-04T02:13:40.173Z,101815.19
2022-10-04T02:16:12.154Z,101813.41
2022-10-04T02:18:43.523Z,101812.53
2022-10-04T02:21:13.099Z,101813.41
2022-10-04T02:23:42.445Z,101809.91
2022-10-04T02:26:11.507Z,101815.13
2022-10-04T02:28:40.296Z,101810.78
2022-10-04T02:31:27.615Z,101814.25
2022-10-04T02:33:59.353Z,101806.38
2022-10-04T02:36:29.426Z,101809.84
2022-10-04T02:39:28.591Z,101806.38
2022-10-04T02:42:02.739Z,101809.00
2022-10-04T02:44:44.493Z,101810.72
2022-10-04T02:47:20.833Z,101804.63
2022-10-04T02:50:09.080Z,101791.47
2022-10-04T02:52:44.899Z,101800.22
2022-10-04T02:55:28.420Z,101800.25
2022-10-04T02:57:56.762Z,101798.47
2022-10-04T03:00:30.938Z,101800.25
2022-10-04T03:03:30.961Z,101791.50
2022-10-04T03:06:12.353Z,101794.13
2022-10-04T03:08:50.479Z,101794.13
2022-10-04T03:11:22.570Z,101796.78
2022-10-04T03:13:56.641Z,101795.03
2022-10-04T03:16:25.008Z,101795.06
2022-10-04T03:18:56.696Z,101801.19
2022-10-04T03:21:24.640Z,101796.81
2022-10-04T03:23:52.984Z,101801.19
2022-10-04T03:26:39.194Z,101793.31
2022-10-04T03:29:11.786Z,101792.41
2022-10-04T03:31:44.536Z,101801.16
2022-10-04T03:34:27.985Z,101802.91
2022-10-04T03:36:58.731Z,101802.88
2022-10-04T03:39:40.698Z,101795.84
2022-10-04T03:42:29.029Z,101798.47
2022-10-04T03:45:07.379Z,101797.59
2022-10-04T03:47:38.863Z,101799.34
2022-10-04T03:50:21.866Z,101796.72
2022-10-04T03:52:57.111Z,101797.56
2022-10-04T03:55:44.331Z,101794.06
2022-10-04T03:58:14.470Z,101798.44
2022-10-04T04:00:58.535Z,101785.31
2022-10-04T04:03:28.467Z,101794.06
2022-10-04T04:06:00.401Z,101793.19
2022-10-04T04:08:35.192Z,101799.28
2022-10-04T04:11:05.068Z,101799.25
2022-10-04T04:13:52.339Z,101794.88
2022-10-04T04:16:26.202Z,101798.38
2022-10-04T04:18:55.708Z,101805.34
2022-10-04T04:21:26.214Z,101801.81
2022-10-04T04:23:59.094Z,101800.94
2022-10-04T04:26:42.421Z,101805.31
2022-10-04T04:29:30.883Z,101796.56
2022-10-04T04:32:05.935Z,101799.19
2022-10-04T04:34:49.039Z,101795.63
2022-10-04T04:37:15.931Z,101803.50
2022-10-04T04:39:45.221Z,101797.38
2022-10-04T04:42:21.200Z,101801.72
2022-10-04T04:45:00.821Z,101802.59
2022-10-04T04:47:44.218Z,101805.25
2022-10-04T04:50:36.253Z,101805.25
2022-10-04T04:53:14.797Z,101802.66
2022-10-04T04:56:02.959Z,101800.06
2022-10-04T04:58:36.445Z,101811.44
2022-10-04T05:01:22.107Z,101801.81
2022-10-04T05:04:08.426Z,101803.56
2022-10-04T05:06:38.018Z,101806.22
2022-10-04T05:09:05.983Z,101804.47
2022-10-04T05:11:38.636Z,101801.84
2022-10-04T05:14:12.038Z,101795.72
2022-10-04T05:16:52.205Z,101802.72
2022-10-04T05:19:30.424Z,101803.56
2022-10-04T05:22:00.384Z,101804.44
2022-10-04T05:24:35.035Z,101804.44
2022-10-04T05:27:20.958Z,101815.81
2022-10-04T05:30:07.816Z,101807.09
2022-10-04T05:33:00.437Z,101810.56
2022-10-04T05:35:29.235Z,101814.97
2022-10-04T05:38:14.732Z,101808.84
2022-10-04T05:40:56.825Z,101817.66
2022-10-04T05:43:35.081Z,101824.66
2022-10-04T05:46:15.802Z,101817.66
2022-10-04T05:48:45.486Z,101817.66
2022-10-04T05:51:19.600Z,101820.28
2022-10-04T05:53:47.057Z,101810.69
2022-10-04T05:56:42.557Z,101823.78
2022-10-04T05:59:44.427Z,101825.56
2022-10-04T06:02:27.884Z,101827.34
2022-10-04T06:05:41.227Z,101838.69
2022-10-04T06:08:44.571Z,101830.88
2022-10-04T06:11:26.937Z,101830.91
2022-10-04T06:14:20.248Z,101834.44
2022-10-04T06:17:09.140Z,101833.56
2022-10-04T06:20:23.641Z,101826.56
2022-10-04T06:22:59.931Z,101830.94
2022-10-04T06:25:37.012Z,101837.09
2022-10-04T06:28:36.289Z,101836.25
2022-10-04T06:31:59.144Z,101834.44
2022-10-04T06:35:15.894Z,101848.50
2022-10-04T06:38:06.568Z,101859.00
2022-10-04T06:41:05.639Z,101862.50
2022-10-04T06:43:59.649Z,101854.66
2022-10-04T06:47:04.295Z,101852.00
2022-10-04T06:49:57.223Z,101867.78
2022-10-04T06:52:42.572Z,101853.78
2022-10-04T06:55:37.805Z,101856.47
2022-10-04T06:58:15.171Z,101855.59
2022-10-04T07:00:54.473Z,101860.00
2022-10-04T07:03:29.744Z,101857.38
2022-10-04T07:06:04.989Z,101860.03
2022-10-04T07:08:56.009Z,101864.44
2022-10-04T07:11:45.829Z,101867.91
2022-10-04T07:14:19.906Z,101876.69
2022-10-04T07:17:19.900Z,101870.53
2022-10-04T07:19:49.378Z,101874.94
2022-10-04T07:22:37.436Z,101881.06
2022-10-04T07:25:28.973Z,101882.81
2022-10-04T07:28:22.274Z,101879.31
2022-10-04T07:31:03.697Z,101881.94
2022-10-04T07:33:35.638Z,101884.56
2022-10-04T07:36:19.797Z,101887.19
2022-10-04T07:39:16.151Z,101890.69
2022-10-04T07:42:02.195Z,101881.94
2022-10-04T07:44:39.645Z,101889.84
2022-10-04T07:47:21.735Z,101895.09
2022-10-04T07:49:50.399Z,101901.25
2022-10-04T07:52:50.771Z,101897.75
2022-10-04T07:55:28.754Z,101898.59
2022-10-04T07:58:45.514Z,101914.38
2022-10-04T08:01:43.408Z,101908.22
2022-10-04T08:04:41.705Z,101908.25
2022-10-04T08:07:22.610Z,101916.09
2022-10-04T08:10:25.796Z,101918.75
2022-10-04T08:13:01.869Z,101913.50
2022-10-04T08:15:41.186Z,101920.50
2022-10-04T08:19:25.398Z,101917.88
2022-10-04T08:22:03.150Z,101913.50
2022-10-04T08:24:42.657Z,101916.13
2022-10-04T08:28:08.559Z,101907.38
2022-10-04T08:30:56.446Z,101906.50
2022-10-04T08:33:39.507Z,101907.38
2022-10-04T08:36:33.247Z,101914.38
2022-10-04T08:39:01.122Z,101911.78
2022-10-04T08:41:55.326Z,101913.53
2022-10-04T08:44:48.013Z,101913.53
2022-10-04T08:47:58.923Z,101920.56
2022-10-04T08:50:50.530Z,101922.28
2022-10-04T08:54:04.167Z,101914.41
2022-10-04T08:57:31.355Z,101919.63
2022-10-04T09:00:35.514Z,101919.63
2022-10-04T09:03:50.823Z,101910.84
2022-10-04T09:06:36.848Z,101921.38
2022-10-04T09:09:52.800Z,101919.59
2022-10-04T09:12:54.146Z,101906.44
2022-10-04T09:15:42.951Z,101911.66
2022-10-04T09:18:12.509Z,101920.41
2022-10-04T09:20:51.628Z,101920.41
2022-10-04T09:23:57.857Z,101922.13
2022-10-04T09:26:48.402Z,101916.00
2022-10-04T09:29:32.162Z,101917.72
2022-10-04T09:32:39.612Z,101920.28
2022-10-04T09:35:42.005Z,101922.91
2022-10-04T09:38:35.897Z,101929.00
2022-10-04T09:41:34.843Z,101927.19
2022-10-04T09:44:43.936Z,101928.88
2022-10-04T09:47:41.118Z,101930.56
2022-10-04T09:50:56.191Z,101939.25
2022-10-04T09:53:45.009Z,101934.78
2022-10-04T09:56:20.748Z,101939.09
2022-10-04T09:59:27.046Z,101930.25
2022-10-04T10:02:33.637Z,101920.50
2022-10-04T10:05:47.456Z,101924.84
2022-10-04T10:08:33.766Z,101923.00
2022-10-04T10:11:56.404Z,101924.66
2022-10-04T10:15:03.686Z,101922.81
2022-10-04T10:17:41.943Z,101917.47
2022-10-04T10:20:49.256Z,101928.84
2022-10-04T10:24:08.886Z,101916.50
2022-10-04T10:27:03.538Z,101913.00
2022-10-04T10:29:59.318Z,101911.22
2022-10-04T10:32:41.336Z,101919.09
2022-10-04T10:35:44.438Z,101918.13
2022-10-04T10:38:31.226Z,101922.41
2022-10-04T10:41:35.821Z,101921.50
2022-10-04T10:44:39.408Z,101915.31
2022-10-04T10:47:31.518Z,101913.47
2022-10-04T10:50:27.333Z,101913.47
2022-10-04T10:53:36.007Z,101909.97
2022-10-04T10:56:30.557Z,101902.03
2022-10-04T10:59:28.626Z,101907.28
2022-10-04T11:02:48.862Z,101905.44
2022-10-04T11:05:50.976Z,101900.97
2022-10-04T11:08:58.100Z,101897.47
2022-10-04T11:12:05.681Z,101896.59
2022-10-04T11:15:13.397Z,101905.28
2022-10-04T11:18:13.402Z,101900.91
2022-10-04T11:21:12.591Z,101900.00
2022-10-04T11:24:07.414Z,101901.72
2022-10-04T11:27:02.764Z,101900.81
2022-10-04T11:30:02.503Z,101902.50
2022-10-04T11:33:17.347Z,101902.44
2022-10-04T11:35:58.568Z,101899.66
2022-10-04T11:39:15.323Z,101884.72
2022-10-04T11:42:18.203Z,101896.09
2022-10-04T11:45:00.426Z,101887.25
2022-10-04T11:47:58.524Z,101891.66
2022-10-04T11:50:28.721Z,101894.28
2022-10-04T11:53:27.552Z,101891.63
2022-10-04T11:56:29.713Z,101887.16
2022-10-04T11:59:25.740Z,101874.00
2022-10-04T12:02:50.198Z,101873.94
2022-10-04T12:05:50.969Z,101870.44
2022-10-04T12:08:38.943Z,101871.19
2022-10-04T12:11:54.554Z,101864.03
2022-10-04T12:14:42.939Z,101861.38
2022-10-04T12:18:05.217Z,101863.13
2022-10-04T12:21:12.521Z,101873.63
2022-10-04T12:24:03.356Z,101871.78
2022-10-04T12:27:25.351Z,101873.50
2022-10-04T12:30:42.329Z,101878.84
2022-10-04T12:33:23.737Z,101869.25
2022-10-04T12:36:24.496Z,101871.91
2022-10-04T12:39:05.204Z,101859.56
2022-10-04T12:42:21.501Z,101864.03
2022-10-04T12:45:25.190Z,101863.13
2022-10-04T12:48:05.474Z,101851.69
2022-10-04T12:51:00.213Z,101849.94
2022-10-04T12:53:42.767Z,101852.59
2022-10-04T12:56:41.317Z,101836.91
2022-10-04T12:59:24.726Z,101845.66
2022-10-04T13:02:26.161Z,101835.09
2022-10-04T13:05:19.440Z,101842.22
2022-10-04T13:08:20.945Z,101841.41
2022-10-04T13:11:18.193Z,101841.41
2022-10-04T13:14:28.101Z,101829.94
2022-10-04T13:17:34.787Z,101833.44
2022-10-04T13:20:59.939Z,101833.44
2022-10-04T13:23:58.597Z,101825.50
2022-10-04T13:27:03.069Z,101827.22
2022-10-04T13:30:02.367Z,101830.78
2022-10-04T13:33:04.888Z,101823.72
2022-10-04T13:36:31.422Z,101826.44
2022-10-04T13:39:14.785Z,101822.00
2022-10-04T13:42:28.083Z,101819.41
2022-10-04T13:45:52.083Z,101819.41
2022-10-04T13:48:54.360Z,101806.19
2022-10-04T13:51:42.873Z,101807.97
2022-10-04T13:55:10.959Z,101809.72
2022-10-04T13:57:47.102Z,101806.19
2022-10-04T14:00:34.683Z,101800.03
2022-10-04T14:03:29.248Z,101805.31
2022-10-04T14:06:30.358Z,101794.75
2022-10-04T14:09:13.691Z,101793.00
2022-10-04T14:12:06.860Z,101787.69
2022-10-04T14:15:04.338Z,101785.91
2022-10-04T14:18:24.807Z,101789.47
2022-10-04T14:21:51.042Z,101787.69
2022-10-04T14:24:46.662Z,101779.78
2022-10-04T14:27:54.820Z,101777.16
2022-10-04T14:30:25.416Z,101774.56
2022-10-04T14:33:03.024Z,101773.66
2022-10-04T14:35:33.577Z,101768.44
2022-10-04T14:38:15.646Z,101764.06
2022-10-04T14:41:12.194Z,101760.59
2022-10-04T14:43:58.536Z,101768.50
2022-10-04T14:47:02.096Z,101763.28
2022-10-04T14:50:00.751Z,101759.84
2022-10-04T14:52:27.801Z,101751.06
2022-10-04T14:55:26.242Z,101755.50
2022-10-04T14:58:13.995Z,101761.75
2022-10-04T15:01:21.029Z,101766.19
2022-10-04T15:04:19.531Z,101760.97
2022-10-04T15:06:54.676Z,101765.38
2022-10-04T15:10:12.680Z,101753.09
2022-10-04T15:13:11.568Z,101750.50
2022-10-04T15:16:20.928Z,101757.59
2022-10-04T15:19:09.273Z,101746.22
2022-10-04T15:21:53.050Z,101744.56
2022-10-04T15:24:25.628Z,101756.84
2022-10-04T15:27:13.815Z,101751.56
2022-10-04T15:30:20.019Z,101747.22
2022-10-04T15:33:13.944Z,101754.31
2022-10-04T15:36:01.712Z,101746.44
2022-10-04T15:39:02.850Z,101750.03
2022-10-04T15:41:48.092Z,101746.53
2022-10-04T15:44:38.821Z,101747.50
2022-10-04T15:47:35.016Z,101742.28
2022-10-04T15:50:25.201Z,101735.28
2022-10-04T15:53:34.447Z,101737.09
2022-10-04T15:56:20.875Z,101739.81
2022-10-04T15:59:47.376Z,101733.69
2022-10-04T16:02:34.908Z,101737.22
2022-10-04T16:05:16.511Z,101737.22
2022-10-04T16:08:03.670Z,101733.81
2022-10-04T16:11:09.601Z,101737.34
2022-10-04T16:13:50.690Z,101740.94
2022-10-04T16:16:31.396Z,101750.63
2022-10-04T16:19:35.767Z,101746.31
2022-10-04T16:22:15.807Z,101751.59
2022-10-04T16:24:50.572Z,101750.78
2022-10-04T16:27:51.260Z,101751.69
2022-10-04T16:30:34.497Z,101747.38
2022-10-04T16:33:25.651Z,101757.09
2022-10-04T16:36:23.994Z,101750.13
2022-10-04T16:39:14.572Z,101749.31
2022-10-04T16:41:59.707Z,101752.88
2022-10-04T16:44:32.643Z,101752.06
2022-10-04T16:47:17.979Z,101747.72
2022-10-04T16:49:57.175Z,101744.25
2022-10-04T16:52:38.608Z,101745.13
2022-10-04T16:55:51.999Z,101739.97
2022-10-04T16:58:28.044Z,101749.69
2022-10-04T17:01:22.936Z,101747.13
2022-10-04T17:03:52.666Z,101762.94
2022-10-04T17:06:31.271Z,101757.72
2022-10-04T17:09:29.772Z,101748.09
2022-10-04T17:12:19.951Z,101746.38
2022-10-04T17:14:55.122Z,101755.19
2022-10-04T17:17:51.437Z,101754.34
2022-10-04T17:20:29.572Z,101749.13
2022-10-04T17:23:36.749Z,101738.59
2022-10-04T17:26:26.958Z,101733.41
2022-10-04T17:29:05.058Z,101724.66
2022-10-04T17:32:17.009Z,101721.16
2022-10-04T17:35:18.591Z,101719.47
2022-10-04T17:38:17.485Z,101722.16
2022-10-04T17:41:42.942Z,101722.16
2022-10-04T17:44:34.219Z,101732.75
2022-10-04T17:47:23.831Z,101731.88
2022-10-04T17:50:40.886Z,101731.03
2022-10-04T17:53:37.927Z,101728.44
2022-10-04T17:56:07.615Z,101722.31
2022-10-04T17:58:52.303Z,101723.22
2022-10-04T18:01:36.465Z,101716.22
2022-10-04T18:04:27.952Z,101725.00
2022-10-04T18:07:04.247Z,101720.63
2022-10-04T18:09:40.191Z,101725.94
2022-10-04T18:12:24.188Z,101723.31
2022-10-04T18:15:21.139Z,101720.69
2022-10-04T18:17:51.484Z,101716.34
2022-10-04T18:20:33.389Z,101730.34
2022-10-04T18:23:14.886Z,101727.75
2022-10-04T18:25:41.846Z,101713.72
2022-10-04T18:28:08.792Z,101715.50
2022-10-04T18:31:00.222Z,101701.47
2022-10-04T18:33:53.936Z,101712.00
2022-10-04T18:36:31.977Z,101709.34
2022-10-04T18:39:18.967Z,101717.25
2022-10-04T18:41:59.620Z,101712.00
2022-10-04T18:45:00.607Z,101704.13
2022-10-04T18:47:40.903Z,101711.16
2022-10-04T18:50:19.475Z,101709.41
2022-10-04T18:53:32.433Z,101710.28
2022-10-04T18:56:09.588Z,101705.03
2022-10-04T18:59:25.843Z,101719.94
2022-10-04T19:02:46.286Z,101725.19
2022-10-04T19:05:53.761Z,101726.94
2022-10-04T19:08:53.299Z,101729.59
2022-10-04T19:11:38.833Z,101736.59
2022-10-04T19:14:27.735Z,101727.84
2022-10-04T19:17:01.884Z,101727.84
2022-10-04T19:19:53.735Z,101728.72
2022-10-04T19:23:06.862Z,101727.00
2022-10-04T19:25:39.340Z,101733.09
2022-10-04T19:28:39.734Z,101728.72
2022-10-04T19:31:30.632Z,101727.00
2022-10-04T19:34:56.127Z,101720.84
2022-10-04T19:37:35.718Z,101705.97
2022-10-04T19:40:28.683Z,101701.59
2022-10-04T19:43:10.581Z,101702.50
2022-10-04T19:46:11.314Z,101695.50
2022-10-04T19:48:49.968Z,101701.63
2022-10-04T19:51:28.421Z,101704.25
2022-10-04T19:54:15.829Z,101699.00
2022-10-04T19:56:48.851Z,101712.09
2022-10-04T19:59:41.402Z,101715.63
2022-10-04T20:02:10.557Z,101712.13
2022-10-04T20:04:38.663Z,101709.50
2022-10-04T20:07:18.591Z,101709.50
2022-10-04T20:10:08.139Z,101689.38
2022-10-04T20:12:41.366Z,101665.75
2022-10-04T20:15:17.264Z,101667.50
2022-10-04T20:17:47.516Z,101664.88
2022-10-04T20:20:38.526Z,101663.13
2022-10-04T20:23:10.136Z,101676.25
2022-10-04T20:25:46.128Z,101679.75
2022-10-04T20:28:28.151Z,101681.50
2022-10-04T20:30:58.281Z,101678.88
2022-10-04T20:33:34.377Z,101678.88
2022-10-04T20:36:05.307Z,101678.88
2022-10-04T20:38:59.668Z,101659.59
2022-10-04T20:41:29.457Z,101660.47
2022-10-04T20:43:58.973Z,101657.84
2022-10-04T20:46:31.588Z,101643.84
2022-10-04T20:48:58.770Z,101650.84
2022-10-04T20:51:27.814Z,101622.84
2022-10-04T20:53:54.727Z,101634.22
2022-10-04T20:56:33.456Z,101628.09
2022-10-04T20:59:03.297Z,101629.81
2022-10-04T21:01:36.015Z,101632.47
2022-10-04T21:04:41.895Z,101642.94
2022-10-04T21:07:17.656Z,101642.09
2022-10-04T21:09:45.161Z,101647.34
2022-10-04T21:12:38.617Z,101645.59
2022-10-04T21:15:18.035Z,101637.72
2022-10-04T21:18:07.263Z,101639.47
2022-10-04T21:20:51.219Z,101633.34
2022-10-04T21:23:33.494Z,101642.09
2022-10-04T21:26:35.263Z,101642.97
2022-10-04T21:29:02.140Z,101653.47
2022-10-04T21:31:29.068Z,101651.72
2022-10-04T21:33:56.001Z,101643.84
2022-10-04T21:36:22.921Z,101643.84
2022-10-04T21:38:49.798Z,101646.47
2022-10-04T21:41:16.659Z,101635.09
2022-10-04T21:43:43.557Z,101638.63
2022-10-04T21:46:10.834Z,101639.47
2022-10-04T21:48:37.732Z,101645.59
2022-10-04T21:51:04.658Z,101643.88
2022-10-04T21:53:31.529Z,101655.22
2022-10-04T21:55:58.422Z,101650.88
2022-10-04T21:58:25.323Z,101657.88
2022-10-04T22:00:52.238Z,101644.75
2022-10-04T22:03:19.171Z,101639.47
2022-10-04T22:05:46.108Z,101636.88
2022-10-04T22:08:12.993Z,101626.38
2022-10-04T22:10:40.134Z,101619.38
2022-10-04T22:13:07.286Z,101616.75
2022-10-04T22:15:34.158Z,101612.34
2022-10-04T22:18:01.131Z,101612.34
2022-10-04T22:20:28.220Z,101621.13
2022-10-04T22:22:58.178Z,101621.97
2022-10-04T22:25:27.490Z,101627.22
2022-10-04T22:27:55.580Z,101617.59
2022-10-04T22:30:29.927Z,101608.00
2022-10-04T22:32:59.135Z,101604.50
2022-10-04T22:35:30.127Z,101604.50
2022-10-04T22:37:57.181Z,101597.50
2022-10-04T22:40:25.576Z,101596.63
2022-10-04T22:42:55.725Z,101602.72
2022-10-04T22:45:28.007Z,101600.09
2022-10-04T22:47:57.963Z,101602.72
2022-10-04T22:50:35.483Z,101603.63
2022-10-04T22:53:12.671Z,101613.25
2022-10-04T22:55:41.394Z,101608.84
2022-10-04T22:58:15.124Z,101601.00
2022-10-04T23:00:43.941Z,101600.13
2022-10-04T23:03:31.294Z,101599.25
2022-10-04T23:05:59.959Z,101591.38
2022-10-04T23:08:27.274Z,101584.38
2022-10-04T23:10:56.581Z,101580.00
2022-10-04T23:13:25.664Z,101579.13
2022-10-04T23:15:57.771Z,101581.75
2022-10-04T23:18:24.685Z,101599.25
2022-10-04T23:21:00.542Z,101586.13
2022-10-04T23:23:30.695Z,101600.13
2022-10-04T23:25:57.574Z,101602.75
2022-10-04T23:28:24.839Z,101593.13
2022-10-04T23:31:07.869Z,101591.38
2022-10-04T23:33:34.797Z,101593.09
2022-10-04T23:36:01.703Z,101580.88
2022-10-04T23:38:30.158Z,101591.34
2022-10-04T23:40:57.040Z,101595.75
2022-10-04T23:43:25.735Z,101581.78
2022-10-04T23:45:58.596Z,101572.13
2022-10-04T23:48:32.233Z,101576.50
2022-10-04T23:50:59.954Z,101575.66
2022-10-04T23:53:31.449Z,101577.38
2022-10-04T23:56:03.895Z,101576.53
2022-10-04T23:58:36.801Z,101575.66
